Hovedside
METAR-TAF:

METAR-TAF

Lufthavner :

Göteborg-Landvetter, Sverige

Göteborg-Landvetter lufthavn

breddegrad: 57-40N, lengdegrad: 012-18E, høyde over havet: 169 m

Gjeldene værobservasjon

Denne rapporten ble laget for 28 minutter siden, klokken 13:20 UTC
Vind 12 kt fra Øst-nordøst
Temperatur -7°C
Luftfuktighet 62%
Trykk 1038 hPa
Sikt 10 km eller mer
Få skyer i en høyde av 2600 ft

METAR: ESGG 251320Z 06012KT 9999 FEW026 M07/M13 Q1038 R03/19//95

Tid: 14:48 (13:48 UTC)

Varsel

Denne rapporten ble laget for 2 timer og 18 minutter siden, klokken 11:30 UTC
Varsel gyldig fra 25. klokken 12 UTC til 26. klokken 12 UTC
Vind 10 kt fra Nordøst
Sikt 10 km eller mer
Få skyer i en høyde av 1000 ft
Sannsynlighet 40%
fra 25. klokken 12 UTC til 25. klokken 16 UTC
Brutte skyer i en høyde av 900 ft

TAF: ESGG 251130Z 2512/2612 04010KT 9999 FEW010 PROB40 2512/2516 BKN009

Værobservasjoner og værvarsel for over 4000 flyplasser (METAR- og TAF-rapporter).

Tilgjengelige stasjoner er representert av de røde og gule prikkene på kartet.

Hold musepekeren over prikken for å se navnet på stasjonen.

Klikk så for å se værobservasjoner og -varsler.

For å forandre kartet kan du klikke på den grønne knappen med svart kryss for å zoome inn, på den grønne knappen med strek for å zoome ut, eller på de grønne pilene for å se tilstøtende kart.


METAR-TAF: